Penn, Nebraska
Current Conditions -  °F | °C
As of 3:53 AM on Tuesday 21 Oct 2014 (Local Time) from KAIA Reporting Station
Clear Clear  
Wind Chill: 44°   Ceiling: Unl
Heat Index: 48°   Visibility: 10mi
Dew Point: 42°   Wind: 8mph
Humidity: 80%   Direction: 170°S
Pressure: 29.97"   Gusts: NA
Location:  41.7534°N, 102.325°W
Report Text: KAIA 210953Z AUTO 17007KT 10SM CLR 09/06 A2997 RMK AO2 SLP118 T00890056
Loading
Personal Weather Stations






























Interactive Weather Map
Tropical Storm Tracking
New forecast layout! Learn more

10-Day Weather Forecast

Advertisements
Track Severe Weather on mobile